»·PEaware :: N172BJ MMES-L35

N172BJ :: MMES-L35

FLIGHT INFORMATION

Flight Status: Arrived
Operator: Privately registered:
United States
More flights under this callsign
Pilot: Nelson I. (120)
Aircraft: CESSNA 208 CARAVAN
(C208)
More flights by this aircraft type
Origin: MMES Ensenada Intl
Mexico
Destination: L35 Big Bear City
United States
More flights between these airports :: More routes between these airports
Route: MMES L35
File this flight plan on PilotEdge
Remarks: / V /
Altitude:
(Current/Filed)
13,500ft
Speed:
(Current/Filed)
140kts
Departed: 22-Dec-11 03:47 PM
Arrived: 22-Dec-11 05:00 PM
Distance/Time
Traveled:
149nm/1:13
Distance/Time
To Go:
Arrived

Flight Plot

Page will automatically refresh every two minutes.


Map Options




Map Legend


Flown Route
Filed Route
Departure Airport
Arrival Airport
Navaid (VOR, NDB)
Fix

Horizontal Profiles

Position Reports

Time Latitude Longitude Heading Altitude Ground
Speed
22-Dec-11 15:44 31.798850 -116.608972 127 71ft 0kts
22-Dec-11 15:45 31.798846 -116.608966 127 71ft 0kts
22-Dec-11 15:46 31.795978 -116.604755 127 74ft 88kts
22-Dec-11 15:47 31.779596 -116.583344 165 1339ft 84kts
22-Dec-11 15:48 31.766068 -116.604555 282 2541ft 102kts
22-Dec-11 15:49 31.792172 -116.623784 11 3429ft 140kts
22-Dec-11 15:50 31.833182 -116.614166 1 4211ft 158kts
22-Dec-11 15:51 31.877504 -116.616515 349 4948ft 159kts
22-Dec-11 15:52 31.921474 -116.620926 347 5679ft 155kts
22-Dec-11 15:53 31.964338 -116.625351 3 6389ft 153kts
22-Dec-11 15:54 32.006460 -116.629385 4 7126ft 148kts
22-Dec-11 15:55 32.046132 -116.633279 5 8069ft 141kts
22-Dec-11 15:56 32.085813 -116.637102 4 8959ft 144kts
22-Dec-11 15:57 32.124692 -116.641066 6 9916ft 131kts
22-Dec-11 15:58 32.158699 -116.644457 4 10862ft 113kts
22-Dec-11 15:59 32.188245 -116.647166 350 11740ft 100kts
22-Dec-11 16:00 32.216061 -116.650277 346 12493ft 98kts
22-Dec-11 16:01 32.241734 -116.660518 334 13126ft 99kts
22-Dec-11 16:02 32.269543 -116.658861 5 13487ft 106kts
22-Dec-11 16:03 32.300831 -116.658264 356 13491ft 115kts
22-Dec-11 16:04 32.333376 -116.661382 355 13488ft 118kts
22-Dec-11 16:05 32.366398 -116.664666 354 13489ft 118kts
22-Dec-11 16:06 32.399529 -116.667798 354 13484ft 119kts
22-Dec-11 16:07 32.432866 -116.671166 352 13480ft 120kts
22-Dec-11 16:08 32.467231 -116.674651 352 13457ft 127kts
22-Dec-11 16:09 32.503407 -116.678228 352 13454ft 132kts
22-Dec-11 16:10 32.540372 -116.681860 349 13451ft 134kts
22-Dec-11 16:11 32.578252 -116.685635 348 13446ft 137kts
22-Dec-11 16:12 32.616603 -116.689449 347 13408ft 142kts
22-Dec-11 16:13 32.656724 -116.693451 347 13395ft 145kts
22-Dec-11 16:14 32.697327 -116.697466 350 13403ft 144kts
22-Dec-11 16:15 32.735332 -116.701210 350 13484ft 133kts
22-Dec-11 16:16 32.772230 -116.704901 351 13496ft 131kts
22-Dec-11 16:17 32.809625 -116.708649 349 13435ft 137kts
22-Dec-11 16:18 32.848026 -116.712467 349 13433ft 138kts
22-Dec-11 16:19 32.885752 -116.716272 354 13545ft 127kts
22-Dec-11 16:20 32.920561 -116.719722 356 13598ft 124kts
22-Dec-11 16:21 32.955720 -116.723219 356 13615ft 128kts
22-Dec-11 16:25 33.097487 -116.737616 355 13675ft 134kts
22-Dec-11 16:26 33.134542 -116.741250 356 13620ft 132kts
22-Dec-11 16:27 33.170922 -116.744800 356 13624ft 130kts
22-Dec-11 16:28 33.207041 -116.748430 356 13627ft 129kts
22-Dec-11 16:29 33.243427 -116.752130 3 13633ft 133kts
22-Dec-11 16:30 33.280793 -116.755828 2 13631ft 135kts
22-Dec-11 16:31 33.318442 -116.759638 2 13631ft 135kts
22-Dec-11 16:32 33.356320 -116.763468 6 13633ft 138kts
22-Dec-11 16:33 33.396714 -116.767414 9 13625ft 154kts
22-Dec-11 16:34 33.443979 -116.772288 344 13675ft 178kts
22-Dec-11 16:35 33.495130 -116.777610 344 13524ft 188kts
22-Dec-11 16:36 33.547388 -116.782869 350 13497ft 191kts
22-Dec-11 16:37 33.596426 -116.788151 1 13794ft 149kts
22-Dec-11 16:38 33.636599 -116.791963 0 13515ft 139kts
22-Dec-11 16:39 33.674297 -116.795705 359 13521ft 133kts
22-Dec-11 16:40 33.711336 -116.799450 359 13524ft 133kts
22-Dec-11 16:41 33.748293 -116.803208 359 13524ft 133kts
22-Dec-11 16:42 33.785343 -116.806983 359 13519ft 132kts
22-Dec-11 16:43 33.822295 -116.810752 358 13522ft 132kts
22-Dec-11 16:44 33.859356 -116.814532 358 13524ft 133kts
22-Dec-11 16:45 33.896589 -116.818334 358 13520ft 134kts
22-Dec-11 16:46 33.933844 -116.822140 358 13514ft 134kts
22-Dec-11 16:47 33.971184 -116.825969 359 13504ft 134kts
22-Dec-11 16:48 34.008700 -116.829815 358 13501ft 134kts
22-Dec-11 16:49 34.046136 -116.833673 357 13548ft 130kts
22-Dec-11 16:50 34.080749 -116.847818 346 13678ft 131kts
22-Dec-11 16:51 34.114116 -116.867971 337 13185ft 136kts
22-Dec-11 16:52 34.144994 -116.895915 332 12577ft 140kts
22-Dec-11 16:53 34.178781 -116.926418 335 11241ft 170kts
22-Dec-11 16:54 34.211704 -116.943385 12 9869ft 120kts
22-Dec-11 16:55 34.242512 -116.936777 30 9306ft 107kts
22-Dec-11 16:56 34.261144 -116.918954 56 8327ft 78kts
22-Dec-11 16:57 34.263041 -116.892348 72 7602ft 75kts
22-Dec-11 16:58 34.263758 -116.868283 77 6868ft 67kts
22-Dec-11 16:59 34.263534 -116.859073 175 6753ft 12kts
22-Dec-11 17:00 34.263256 -116.859322 255 6753ft 0kts
22-Dec-11 17:01 34.263206 -116.864892 281 6753ft 16kts
22-Dec-11 17:03 34.263424 -116.865625 2 6753ft 0kts
22-Dec-11 17:04 34.263431 -116.865625 2 6753ft 0kts

Navigation Log

Ident Type
Flight plan parsing failed, navigation log unavailable